Time;durP1;ratioP1;P1;durP2;ratioP2;P2;SDS_P1;SDS_P2;PMS_P1;PMS_P2;Temp;Humidity;BMP_temperature;BMP_pressure;BME280_temperature;BME280_humidity;BME280_pressure;Samples;Min_cycle;Max_cycle;Signal;HPM_P1;HPM_P2
2021/01/09 00:01:03;;;;;;;11.43;6.30;;;;;;;;;;5067540;28;20371;-81
2021/01/09 00:03:29;;;;;;;8.07;6.10;;;;;;;;;;5089138;28;20036;-83
2021/01/09 00:05:55;;;;;;;13.10;5.63;;;;;;;;;;5091025;28;20115;-81
2021/01/09 00:08:21;;;;;;;11.23;6.17;;;;;;;;;;5071313;28;20035;-82
2021/01/09 00:10:48;;;;;;;11.57;5.93;;;;;;;;;;5089575;28;20036;-81
2021/01/09 00:13:15;;;;;;;9.47;6.17;;;;;;;;;;5085406;28;20039;-82
2021/01/09 00:15:41;;;;;;;12.27;6.17;;;;;;;;;;5069014;28;20040;-82
2021/01/09 00:18:07;;;;;;;10.50;6.30;;;;;;;;;;5087122;28;20048;-82
2021/01/09 00:20:33;;;;;;;10.10;5.57;;;;;;;;;;5073146;28;20535;-82
2021/01/09 00:22:59;;;;;;;8.17;5.23;;;;;;;;;;5075240;28;20028;-82
2021/01/09 00:25:25;;;;;;;11.23;5.53;;;;;;;;;;5092177;28;20055;-83
2021/01/09 00:27:51;;;;;;;11.77;4.87;;;;;;;;;;5091423;28;20025;-82
2021/01/09 00:30:17;;;;;;;10.27;5.63;;;;;;;;;;5090852;28;20032;-81
2021/01/09 00:32:43;;;;;;;9.37;4.63;;;;;;;;;;5091512;28;20029;-82
2021/01/09 00:35:09;;;;;;;10.87;4.70;;;;;;;;;;5091606;28;20028;-81
2021/01/09 00:37:35;;;;;;;9.07;4.80;;;;;;;;;;5090228;28;20033;-82
2021/01/09 00:40:02;;;;;;;9.93;5.13;;;;;;;;;;5090145;28;20020;-82
2021/01/09 00:42:27;;;;;;;6.53;4.67;;;;;;;;;;5087653;28;20043;-81
2021/01/09 00:44:53;;;;;;;9.83;4.37;;;;;;;;;;5086329;28;20099;-82
2021/01/09 00:47:19;;;;;;;10.67;5.13;;;;;;;;;;5081436;28;20033;-81
2021/01/09 00:49:45;;;;;;;10.90;4.70;;;;;;;;;;5080256;28;20090;-81
2021/01/09 00:52:11;;;;;;;7.37;4.30;;;;;;;;;;5076221;28;20150;-81
2021/01/09 00:54:38;;;;;;;7.20;4.47;;;;;;;;;;5076918;28;20029;-81
2021/01/09 00:57:04;;;;;;;6.73;4.43;;;;;;;;;;5060823;28;20532;-81
2021/01/09 00:59:30;;;;;;;7.10;4.07;;;;;;;;;;5060931;28;20124;-81
2021/01/09 01:01:58;;;;;;;7.67;4.40;;;;;;;;;;5079236;28;20110;-81
2021/01/09 01:04:25;;;;;;;5.93;3.30;;;;;;;;;;5061827;28;20480;-81
2021/01/09 01:06:51;;;;;;;7.47;3.87;;;;;;;;;;5078140;28;20024;-80
2021/01/09 01:09:17;;;;;;;9.87;3.70;;;;;;;;;;5078078;28;20107;-81
2021/01/09 01:11:43;;;;;;;8.00;3.90;;;;;;;;;;5060266;28;20032;-81
2021/01/09 01:14:09;;;;;;;6.70;3.80;;;;;;;;;;5079759;28;20359;-81
2021/01/09 01:16:35;;;;;;;6.60;3.43;;;;;;;;;;5077841;28;20060;-81
2021/01/09 01:19:01;;;;;;;5.77;3.63;;;;;;;;;;5078589;28;20505;-80
2021/01/09 01:21:27;;;;;;;8.50;3.97;;;;;;;;;;5080429;28;20037;-80
2021/01/09 01:23:53;;;;;;;9.10;4.60;;;;;;;;;;5079314;28;20031;-80
2021/01/09 01:26:19;;;;;;;7.43;3.53;;;;;;;;;;5079783;28;20039;-80
2021/01/09 01:28:45;;;;;;;6.10;3.27;;;;;;;;;;5064746;28;20036;-81
2021/01/09 01:31:11;;;;;;;6.67;3.80;;;;;;;;;;5065509;28;20043;-81
2021/01/09 01:33:38;;;;;;;7.63;3.30;;;;;;;;;;5083448;28;20050;-80
2021/01/09 01:36:04;;;;;;;5.03;3.10;;;;;;;;;;5067964;28;20405;-81
2021/01/09 01:38:30;;;;;;;10.63;3.70;;;;;;;;;;5085641;28;20040;-81
2021/01/09 01:41:06;;;;;;;6.30;3.00;;;;;;;;;;5089817;28;20436;-82
2021/01/09 01:43:32;;;;;;;5.63;3.30;;;;;;;;;;5088889;28;20041;-81
2021/01/09 01:45:59;;;;;;;4.60;2.93;;;;;;;;;;5089242;28;20020;-82
2021/01/09 01:48:25;;;;;;;7.47;3.00;;;;;;;;;;5088430;28;20035;-81
2021/01/09 01:50:51;;;;;;;6.43;3.53;;;;;;;;;;5071048;28;20048;-81
2021/01/09 01:53:18;;;;;;;6.13;3.27;;;;;;;;;;5071499;28;20055;-82
2021/01/09 01:55:44;;;;;;;6.07;3.63;;;;;;;;;;5088227;28;20036;-82
2021/01/09 01:58:11;;;;;;;6.27;2.87;;;;;;;;;;5088761;28;20102;-82
2021/01/09 02:00:44;;;;;;;8.17;2.80;;;;;;;;;;5071142;28;20044;-82
2021/01/09 02:03:10;;;;;;;6.10;3.80;;;;;;;;;;5088879;28;20032;-82
2021/01/09 02:05:41;;;;;;;4.97;2.80;;;;;;;;;;5091436;28;20028;-82
2021/01/09 02:08:10;;;;;;;5.13;3.20;;;;;;;;;;5092445;28;20028;-82
2021/01/09 02:10:36;;;;;;;8.13;2.80;;;;;;;;;;5095172;28;20031;-82
2021/01/09 02:13:08;;;;;;;8.23;3.43;;;;;;;;;;5095300;28;20048;-82
2021/01/09 02:15:35;;;;;;;8.43;2.93;;;;;;;;;;5092384;28;20121;-82
2021/01/09 02:18:01;;;;;;;4.47;2.90;;;;;;;;;;5092369;28;20035;-81
2021/01/09 02:20:28;;;;;;;4.33;2.47;;;;;;;;;;5090624;28;20009;-82
2021/01/09 02:22:54;;;;;;;11.00;3.20;;;;;;;;;;5091491;28;20044;-81
2021/01/09 02:25:20;;;;;;;7.27;3.07;;;;;;;;;;5068040;28;20029;-82
2021/01/09 02:27:46;;;;;;;6.03;3.43;;;;;;;;;;5083974;28;20048;-81
2021/01/09 02:30:14;;;;;;;3.60;2.23;;;;;;;;;;5084141;28;20047;-81
2021/01/09 02:32:58;;;;;;;7.60;3.67;;;;;;;;;;5084205;28;20032;-81
2021/01/09 02:35:25;;;;;;;6.90;2.90;;;;;;;;;;5082963;28;20039;-80
2021/01/09 02:37:54;;;;;;;7.23;2.80;;;;;;;;;;5068435;28;20025;-83
2021/01/09 02:40:23;;;;;;;9.23;2.67;;;;;;;;;;5085605;28;20029;-81
2021/01/09 02:42:49;;;;;;;5.57;2.70;;;;;;;;;;5086551;28;20092;-82
2021/01/09 02:45:15;;;;;;;9.63;2.80;;;;;;;;;;5089792;28;20039;-82
2021/01/09 02:47:41;;;;;;;4.33;2.67;;;;;;;;;;5088799;28;20025;-83
2021/01/09 02:50:11;;;;;;;6.17;2.73;;;;;;;;;;5086864;28;20025;-82
2021/01/09 02:52:40;;;;;;;7.40;2.73;;;;;;;;;;5080435;28;20028;-81
2021/01/09 02:55:07;;;;;;;7.57;2.70;;;;;;;;;;5078714;28;20040;-81
2021/01/09 02:57:33;;;;;;;6.43;2.67;;;;;;;;;;5080004;28;20029;-81
2021/01/09 02:59:59;;;;;;;7.30;2.70;;;;;;;;;;5080295;28;20505;-81
2021/01/09 03:02:25;;;;;;;3.77;3.00;;;;;;;;;;5082178;28;20032;-81
2021/01/09 03:04:51;;;;;;;8.17;2.70;;;;;;;;;;5082197;28;20032;-81
2021/01/09 03:07:17;;;;;;;4.10;2.67;;;;;;;;;;5080739;28;20086;-81
2021/01/09 03:09:43;;;;;;;4.50;1.83;;;;;;;;;;5080733;28;20119;-81
2021/01/09 03:12:09;;;;;;;6.27;2.60;;;;;;;;;;5064802;28;20063;-81
2021/01/09 03:14:35;;;;;;;6.63;2.87;;;;;;;;;;5081408;28;20469;-81
2021/01/09 03:17:01;;;;;;;5.10;2.60;;;;;;;;;;5080984;28;20417;-81
2021/01/09 03:19:27;;;;;;;4.97;2.47;;;;;;;;;;5082403;28;20035;-81
2021/01/09 03:21:54;;;;;;;3.87;2.23;;;;;;;;;;5085754;28;20115;-81
2021/01/09 03:24:20;;;;;;;7.73;2.30;;;;;;;;;;5088768;28;20028;-81
2021/01/09 03:26:46;;;;;;;4.00;2.13;;;;;;;;;;5083430;28;20036;-81
2021/01/09 03:29:12;;;;;;;4.07;2.27;;;;;;;;;;5082097;28;20450;-81
2021/01/09 03:31:38;;;;;;;5.87;2.50;;;;;;;;;;5065990;28;20123;-81
2021/01/09 03:34:04;;;;;;;5.67;3.07;;;;;;;;;;5083829;28;20032;-81
2021/01/09 03:36:30;;;;;;;6.50;2.23;;;;;;;;;;5084037;28;20100;-81
2021/01/09 03:38:56;;;;;;;4.57;2.03;;;;;;;;;;5072178;28;20033;-83
2021/01/09 03:41:22;;;;;;;3.37;2.33;;;;;;;;;;5073599;28;20078;-82
2021/01/09 03:43:48;;;;;;;4.53;2.30;;;;;;;;;;5087272;28;20036;-82
2021/01/09 03:46:14;;;;;;;7.73;2.20;;;;;;;;;;5088064;28;20050;-82
2021/01/09 03:48:41;;;;;;;6.80;2.60;;;;;;;;;;5086032;28;20081;-81
2021/01/09 03:51:07;;;;;;;4.57;2.70;;;;;;;;;;5083585;28;20032;-81
2021/01/09 03:53:33;;;;;;;8.67;2.10;;;;;;;;;;5084450;28;20107;-81
2021/01/09 03:55:59;;;;;;;7.67;1.90;;;;;;;;;;5067857;28;20060;-81
2021/01/09 03:58:25;;;;;;;5.47;2.40;;;;;;;;;;5068295;28;20032;-81
2021/01/09 04:00:51;;;;;;;4.27;1.87;;;;;;;;;;5084613;28;20078;-81
2021/01/09 04:03:17;;;;;;;10.87;2.57;;;;;;;;;;5084309;28;20040;-81
2021/01/09 04:05:43;;;;;;;5.43;2.63;;;;;;;;;;5085725;28;20528;-81
2021/01/09 04:08:09;;;;;;;3.30;1.83;;;;;;;;;;5070777;28;20074;-82
2021/01/09 04:10:35;;;;;;;5.47;1.60;;;;;;;;;;5073193;28;20050;-81
2021/01/09 04:13:01;;;;;;;3.07;1.60;;;;;;;;;;5086081;28;20064;-81
2021/01/09 04:15:27;;;;;;;5.07;1.80;;;;;;;;;;5085646;28;20028;-81
2021/01/09 04:17:53;;;;;;;4.03;2.10;;;;;;;;;;5085719;28;20033;-81
2021/01/09 04:20:19;;;;;;;8.77;2.17;;;;;;;;;;5070115;28;20050;-82
2021/01/09 04:22:45;;;;;;;3.63;1.87;;;;;;;;;;5071340;28;20059;-81
2021/01/09 04:25:11;;;;;;;7.07;2.03;;;;;;;;;;5091647;28;20039;-82
2021/01/09 04:27:37;;;;;;;3.07;2.03;;;;;;;;;;5073440;28;20028;-82
2021/01/09 04:30:04;;;;;;;3.10;1.93;;;;;;;;;;5073090;28;20355;-83
2021/01/09 04:32:30;;;;;;;4.30;1.97;;;;;;;;;;5090391;28;20096;-82
2021/01/09 04:34:56;;;;;;;5.67;2.27;;;;;;;;;;5069543;28;20036;-82
2021/01/09 04:37:22;;;;;;;4.00;2.13;;;;;;;;;;5089415;28;20032;-83
2021/01/09 04:39:49;;;;;;;9.53;4.00;;;;;;;;;;5090505;28;20038;-83
2021/01/09 04:42:15;;;;;;;12.10;3.97;;;;;;;;;;5089429;28;20044;-83
2021/01/09 04:44:41;;;;;;;11.43;3.50;;;;;;;;;;5085274;28;20031;-82
2021/01/09 04:47:08;;;;;;;7.63;4.40;;;;;;;;;;5087852;28;20055;-81
2021/01/09 04:49:34;;;;;;;9.17;3.07;;;;;;;;;;5087665;28;20031;-82
2021/01/09 04:52:02;;;;;;;4.47;2.70;;;;;;;;;;5069984;28;20032;-82
2021/01/09 04:54:29;;;;;;;6.17;2.53;;;;;;;;;;5087741;28;20028;-82
2021/01/09 04:56:56;;;;;;;4.73;2.23;;;;;;;;;;5065647;28;20090;-81
2021/01/09 04:59:22;;;;;;;4.13;2.30;;;;;;;;;;5064171;28;20024;-81
2021/01/09 05:01:49;;;;;;;7.97;2.60;;;;;;;;;;5080152;28;20053;-81
2021/01/09 05:04:16;;;;;;;7.90;3.07;;;;;;;;;;5082209;28;20477;-81
2021/01/09 05:06:43;;;;;;;9.27;2.57;;;;;;;;;;5086669;28;20032;-83
2021/01/09 05:09:10;;;;;;;9.43;2.90;;;;;;;;;;5082126;28;20435;-81
2021/01/09 05:11:37;;;;;;;6.00;2.93;;;;;;;;;;5080178;28;20060;-81
2021/01/09 05:14:07;;;;;;;7.80;2.90;;;;;;;;;;5063856;28;20082;-81
2021/01/09 05:16:34;;;;;;;4.70;2.30;;;;;;;;;;5080816;28;20025;-81
2021/01/09 05:19:01;;;;;;;4.70;2.57;;;;;;;;;;5064987;28;20028;-81
2021/01/09 05:21:27;;;;;;;9.10;2.23;;;;;;;;;;5082405;28;20036;-81
2021/01/09 05:23:54;;;;;;;4.60;2.20;;;;;;;;;;5084648;28;20029;-81
2021/01/09 05:26:21;;;;;;;5.50;2.70;;;;;;;;;;5085263;28;20029;-81
2021/01/09 05:28:54;;;;;;;8.43;2.17;;;;;;;;;;5085102;28;20453;-81
2021/01/09 05:31:21;;;;;;;6.23;2.20;;;;;;;;;;5087198;28;20029;-81
2021/01/09 05:33:48;;;;;;;5.90;2.67;;;;;;;;;;5082887;28;20031;-82
2021/01/09 05:36:15;;;;;;;5.53;1.73;;;;;;;;;;5070368;28;20032;-83
2021/01/09 05:38:42;;;;;;;6.27;2.20;;;;;;;;;;5085994;28;20083;-81
2021/01/09 05:41:09;;;;;;;5.67;2.27;;;;;;;;;;5072354;28;20032;-81
2021/01/09 05:43:35;;;;;;;12.00;2.60;;;;;;;;;;5083865;28;20044;-81
2021/01/09 05:46:01;;;;;;;8.50;3.00;;;;;;;;;;5082013;28;20378;-81
2021/01/09 05:48:31;;;;;;;6.97;1.80;;;;;;;;;;5083760;28;20024;-81
2021/01/09 05:50:59;;;;;;;6.03;2.40;;;;;;;;;;5082377;28;20060;-81
2021/01/09 05:53:37;;;;;;;10.43;2.53;;;;;;;;;;5084453;28;20021;-81
2021/01/09 05:56:06;;;;;;;7.40;2.97;;;;;;;;;;5083178;28;20032;-81
2021/01/09 05:58:32;;;;;;;5.40;2.33;;;;;;;;;;5083766;28;20029;-80
2021/01/09 06:00:59;;;;;;;8.43;2.20;;;;;;;;;;5066485;28;20044;-81
2021/01/09 06:03:44;;;;;;;10.93;2.47;;;;;;;;;;5085172;28;20028;-81
2021/01/09 06:06:13;;;;;;;5.95;2.38;;;;;;;;;;5085278;28;20040;-81
2021/01/09 06:08:42;;;;;;;8.03;2.53;;;;;;;;;;5084800;28;20029;-81
2021/01/09 06:11:09;;;;;;;8.80;2.40;;;;;;;;;;5085322;28;20029;-81
2021/01/09 06:13:36;;;;;;;7.37;2.97;;;;;;;;;;5085641;28;20021;-81
2021/01/09 06:16:05;;;;;;;6.30;1.90;;;;;;;;;;5070209;28;20074;-81
2021/01/09 06:18:32;;;;;;;8.60;2.50;;;;;;;;;;5088300;28;20028;-82
2021/01/09 06:20:58;;;;;;;7.33;2.20;;;;;;;;;;5091640;28;20043;-81
2021/01/09 06:23:25;;;;;;;6.73;2.30;;;;;;;;;;5086944;28;20025;-82
2021/01/09 06:25:52;;;;;;;5.60;2.33;;;;;;;;;;5087037;28;20480;-80
2021/01/09 06:28:20;;;;;;;8.00;2.23;;;;;;;;;;5087531;28;20047;-81
2021/01/09 06:30:50;;;;;;;3.83;1.87;;;;;;;;;;5088676;28;20024;-82
2021/01/09 06:33:16;;;;;;;8.53;2.40;;;;;;;;;;5089512;28;20020;-82
2021/01/09 06:35:46;;;;;;;6.53;2.50;;;;;;;;;;5090822;28;20036;-82
2021/01/09 06:38:12;;;;;;;7.20;2.33;;;;;;;;;;5074827;28;20039;-83
2021/01/09 06:40:38;;;;;;;12.73;2.17;;;;;;;;;;5091243;28;20052;-81
2021/01/09 06:43:04;;;;;;;7.23;2.13;;;;;;;;;;5092845;28;20008;-83
2021/01/09 06:45:30;;;;;;;3.47;1.70;;;;;;;;;;5091023;28;20025;-82
2021/01/09 06:47:57;;;;;;;4.60;2.13;;;;;;;;;;5093162;28;20115;-83
2021/01/09 06:50:26;;;;;;;3.83;1.77;;;;;;;;;;5090982;28;20029;-83
2021/01/09 06:52:55;;;;;;;5.00;1.80;;;;;;;;;;5091802;28;20024;-83
2021/01/09 06:55:37;;;;;;;8.10;2.47;;;;;;;;;;5083410;28;20033;-83
2021/01/09 06:58:09;;;;;;;7.30;1.57;;;;;;;;;;5082044;28;20103;-81
2021/01/09 07:00:36;;;;;;;10.53;3.03;;;;;;;;;;5080914;28;20122;-81
2021/01/09 07:03:18;;;;;;;7.57;1.87;;;;;;;;;;5082220;28;20060;-81
2021/01/09 07:05:51;;;;;;;4.37;1.37;;;;;;;;;;5081711;28;20089;-80
2021/01/09 07:08:21;;;;;;;6.27;2.30;;;;;;;;;;5064743;28;20043;-82
2021/01/09 07:10:49;;;;;;;5.33;1.80;;;;;;;;;;5081674;28;20029;-82
2021/01/09 07:13:17;;;;;;;7.30;1.53;;;;;;;;;;5081623;28;20032;-82
2021/01/09 07:15:43;;;;;;;5.00;1.70;;;;;;;;;;5083324;28;20411;-81
2021/01/09 07:18:09;;;;;;;9.03;2.07;;;;;;;;;;5067634;28;20033;-82
2021/01/09 07:20:49;;;;;;;8.70;2.23;;;;;;;;;;5085925;28;20090;-81
2021/01/09 07:23:16;;;;;;;4.30;1.87;;;;;;;;;;5086799;28;20040;-83
2021/01/09 07:25:44;;;;;;;6.17;1.60;;;;;;;;;;5069578;28;20028;-82
2021/01/09 07:28:13;;;;;;;8.70;1.80;;;;;;;;;;5084311;28;20032;-83
2021/01/09 07:30:40;;;;;;;8.17;2.03;;;;;;;;;;5087478;28;20496;-82
2021/01/09 07:33:11;;;;;;;11.63;2.03;;;;;;;;;;5086946;28;20044;-83
2021/01/09 07:35:37;;;;;;;13.33;1.87;;;;;;;;;;5087530;28;20035;-83
2021/01/09 07:38:04;;;;;;;10.13;2.57;;;;;;;;;;5067499;28;20032;-81
2021/01/09 07:40:46;;;;;;;11.67;3.20;;;;;;;;;;5066205;28;20029;-83
2021/01/09 07:43:30;;;;;;;15.07;3.90;;;;;;;;;;5085180;28;20028;-81
2021/01/09 07:45:56;;;;;;;12.30;4.07;;;;;;;;;;5085890;28;20059;-82
2021/01/09 07:48:23;;;;;;;8.83;2.43;;;;;;;;;;5069100;28;20028;-82
2021/01/09 07:50:52;;;;;;;14.83;2.77;;;;;;;;;;5068730;28;20059;-82
2021/01/09 07:53:26;;;;;;;9.83;3.17;;;;;;;;;;5067468;28;20033;-82
2021/01/09 07:55:53;;;;;;;9.33;2.60;;;;;;;;;;5084017;28;20020;-81
2021/01/09 07:58:19;;;;;;;11.07;2.17;;;;;;;;;;5067287;28;20560;-81
2021/01/09 08:00:45;;;;;;;8.97;1.97;;;;;;;;;;5084406;28;20051;-83
2021/01/09 08:03:13;;;;;;;14.30;2.37;;;;;;;;;;5085556;28;20477;-82
2021/01/09 08:05:39;;;;;;;7.23;2.23;;;;;;;;;;5086123;28;20066;-83
2021/01/09 08:08:06;;;;;;;8.17;2.03;;;;;;;;;;5087694;28;20043;-82
2021/01/09 08:10:32;;;;;;;4.87;2.00;;;;;;;;;;5090131;28;20060;-81
2021/01/09 08:13:05;;;;;;;5.87;2.10;;;;;;;;;;5089284;28;20032;-81
2021/01/09 08:15:32;;;;;;;9.97;2.40;;;;;;;;;;5073934;28;20029;-81
2021/01/09 08:18:02;;;;;;;10.30;2.30;;;;;;;;;;5090565;28;20031;-81
2021/01/09 08:20:28;;;;;;;6.67;2.73;;;;;;;;;;5072517;28;20029;-84
2021/01/09 08:22:58;;;;;;;17.37;2.47;;;;;;;;;;5072336;28;20032;-82
2021/01/09 08:25:25;;;;;;;13.67;2.60;;;;;;;;;;5090635;28;20035;-82
2021/01/09 08:27:53;;;;;;;6.97;2.80;;;;;;;;;;5089686;28;20024;-84
2021/01/09 08:30:21;;;;;;;11.93;1.87;;;;;;;;;;5088876;28;20024;-84
2021/01/09 08:32:47;;;;;;;12.30;2.03;;;;;;;;;;5090983;28;20029;-84
2021/01/09 08:35:14;;;;;;;9.30;2.07;;;;;;;;;;5089331;28;20040;-83
2021/01/09 08:37:40;;;;;;;7.00;2.57;;;;;;;;;;5069446;28;20059;-82
2021/01/09 08:40:14;;;;;;;11.37;2.77;;;;;;;;;;5086407;28;20050;-84
2021/01/09 08:42:58;;;;;;;14.33;2.10;;;;;;;;;;5089693;28;20054;-82
2021/01/09 08:45:45;;;;;;;11.02;2.50;;;;;;;;;;5090387;28;20044;-82
2021/01/09 08:48:12;;;;;;;9.00;2.07;;;;;;;;;;5090866;28;20017;-83
2021/01/09 08:50:55;;;;;;;5.60;2.67;;;;;;;;;;5089986;28;20021;-82
2021/01/09 08:53:22;;;;;;;5.40;1.83;;;;;;;;;;5092466;28;20044;-84
2021/01/09 08:55:48;;;;;;;12.60;2.40;;;;;;;;;;5090177;28;20049;-83
2021/01/09 08:58:14;;;;;;;6.60;2.43;;;;;;;;;;5091854;28;20111;-83
2021/01/09 09:00:43;;;;;;;10.73;3.00;;;;;;;;;;5087779;28;20470;-82
2021/01/09 09:03:11;;;;;;;14.87;3.40;;;;;;;;;;5071086;28;20033;-82
2021/01/09 09:05:39;;;;;;;6.30;2.53;;;;;;;;;;5090810;28;20052;-84
2021/01/09 09:08:07;;;;;;;11.10;3.20;;;;;;;;;;5088595;28;20020;-83
2021/01/09 09:10:35;;;;;;;13.10;2.93;;;;;;;;;;5089421;28;20032;-85
2021/01/09 09:13:24;;;;;;;10.73;2.97;;;;;;;;;;5086012;28;20028;-82
2021/01/09 09:15:51;;;;;;;8.70;2.77;;;;;;;;;;5073579;28;20043;-82
2021/01/09 09:18:17;;;;;;;8.80;2.50;;;;;;;;;;5085657;28;20031;-82
2021/01/09 09:20:50;;;;;;;11.97;2.57;;;;;;;;;;5072905;28;20025;-82
2021/01/09 09:23:24;;;;;;;21.13;2.70;;;;;;;;;;5084375;28;20036;-82
2021/01/09 09:26:03;;;;;;;10.83;2.20;;;;;;;;;;5085131;28;20142;-82
2021/01/09 09:28:30;;;;;;;12.53;2.23;;;;;;;;;;5091035;28;20029;-83
2021/01/09 09:30:56;;;;;;;11.23;2.37;;;;;;;;;;5087704;28;20028;-83
2021/01/09 09:33:24;;;;;;;10.27;2.17;;;;;;;;;;5071914;28;20031;-82
2021/01/09 09:35:50;;;;;;;6.80;2.37;;;;;;;;;;5083450;28;20060;-82
2021/01/09 09:38:25;;;;;;;9.80;2.57;;;;;;;;;;5081556;28;20405;-82
2021/01/09 09:40:51;;;;;;;9.03;2.73;;;;;;;;;;5083204;28;20090;-82
2021/01/09 09:43:20;;;;;;;9.70;2.60;;;;;;;;;;5065839;28;20037;-82
2021/01/09 09:45:56;;;;;;;8.90;2.80;;;;;;;;;;5085300;28;20059;-82
2021/01/09 09:48:40;;;;;;;11.70;2.60;;;;;;;;;;5066196;28;20048;-82
2021/01/09 09:51:07;;;;;;;12.37;3.13;;;;;;;;;;5082007;28;20029;-82
2021/01/09 09:53:35;;;;;;;9.60;2.77;;;;;;;;;;5082044;28;20052;-82
2021/01/09 09:56:37;;;;;;;13.93;2.87;;;;;;;;;;5081879;28;20028;-82
2021/01/09 09:59:04;;;;;;;11.10;2.87;;;;;;;;;;5002286;28;20038;-82
2021/01/09 10:01:30;;;;;;;10.23;1.90;;;;;;;;;;5066440;28;20048;-81
2021/01/09 10:03:57;;;;;;;15.70;1.97;;;;;;;;;;5084226;28;20032;-82
2021/01/09 10:06:23;;;;;;;14.00;2.10;;;;;;;;;;5073105;28;20032;-83
2021/01/09 10:08:49;;;;;;;11.53;1.93;;;;;;;;;;5090324;28;20428;-82
2021/01/09 10:11:15;;;;;;;15.67;1.70;;;;;;;;;;5089850;28;20032;-81
2021/01/09 10:13:41;;;;;;;12.23;1.40;;;;;;;;;;5082401;28;20124;-81
2021/01/09 10:16:07;;;;;;;24.23;2.97;;;;;;;;;;5065510;28;20492;-81
2021/01/09 10:18:35;;;;;;;12.10;1.20;;;;;;;;;;5084749;28;20027;-80
2021/01/09 10:21:01;;;;;;;16.47;1.30;;;;;;;;;;5080714;28;20032;-81
2021/01/09 10:23:30;;;;;;;14.90;2.23;;;;;;;;;;5080934;28;20024;-82
2021/01/09 10:25:57;;;;;;;10.50;1.00;;;;;;;;;;5080718;28;20496;-81
2021/01/09 10:28:26;;;;;;;17.07;1.23;;;;;;;;;;5081342;28;20444;-81
2021/01/09 10:30:52;;;;;;;20.30;1.33;;;;;;;;;;5077087;28;20034;-81
2021/01/09 10:33:18;;;;;;;13.40;1.57;;;;;;;;;;5081964;28;20020;-80
2021/01/09 10:35:48;;;;;;;15.67;1.63;;;;;;;;;;5082089;28;20021;-80
2021/01/09 10:38:15;;;;;;;11.47;1.30;;;;;;;;;;5082426;28;20046;-81
2021/01/09 10:40:42;;;;;;;12.10;1.20;;;;;;;;;;5085810;28;20029;-82
2021/01/09 10:43:08;;;;;;;12.60;1.07;;;;;;;;;;5067526;28;20067;-81
2021/01/09 10:45:34;;;;;;;13.73;3.60;;;;;;;;;;5084279;28;20081;-81
2021/01/09 10:48:00;;;;;;;13.40;1.03;;;;;;;;;;5068340;28;20036;-80
2021/01/09 10:50:26;;;;;;;16.87;3.10;;;;;;;;;;5067836;28;20037;-80
2021/01/09 10:52:52;;;;;;;8.97;1.20;;;;;;;;;;5083221;28;20028;-81
2021/01/09 10:55:18;;;;;;;18.37;1.70;;;;;;;;;;5068896;28;20048;-80
2021/01/09 10:57:44;;;;;;;12.97;1.40;;;;;;;;;;5087327;28;20036;-80
2021/01/09 11:00:10;;;;;;;11.60;1.17;;;;;;;;;;5088713;28;20056;-79
2021/01/09 11:02:37;;;;;;;9.07;1.70;;;;;;;;;;5089987;28;20059;-80
2021/01/09 11:05:03;;;;;;;18.53;1.27;;;;;;;;;;5091689;28;20034;-81
2021/01/09 11:07:29;;;;;;;13.53;1.57;;;;;;;;;;5086742;28;20394;-81
2021/01/09 11:09:55;;;;;;;7.83;1.47;;;;;;;;;;5070974;28;20035;-81
2021/01/09 11:12:23;;;;;;;14.77;2.07;;;;;;;;;;5073774;28;20032;-82
2021/01/09 11:14:49;;;;;;;11.30;1.13;;;;;;;;;;5090143;28;20025;-82
2021/01/09 11:17:15;;;;;;;16.43;1.80;;;;;;;;;;5089015;28;20032;-83
2021/01/09 11:19:42;;;;;;;11.97;1.13;;;;;;;;;;5090742;28;20033;-83
2021/01/09 11:22:08;;;;;;;18.77;1.40;;;;;;;;;;5075406;28;20120;-83
2021/01/09 11:24:34;;;;;;;17.50;1.10;;;;;;;;;;5089404;28;20033;-81
2021/01/09 11:27:01;;;;;;;8.93;0.97;;;;;;;;;;5088532;28;20025;-83
2021/01/09 11:29:27;;;;;;;13.20;1.27;;;;;;;;;;5090012;28;20029;-82
2021/01/09 11:31:57;;;;;;;13.10;1.50;;;;;;;;;;5068780;28;20513;-82
2021/01/09 11:34:23;;;;;;;15.50;1.30;;;;;;;;;;5085909;28;20046;-82
2021/01/09 11:36:49;;;;;;;15.53;1.17;;;;;;;;;;5070567;28;20033;-81
2021/01/09 11:39:15;;;;;;;16.20;1.67;;;;;;;;;;5063791;28;20090;-81
2021/01/09 11:41:41;;;;;;;11.57;1.50;;;;;;;;;;5063859;28;20037;-81
2021/01/09 11:44:07;;;;;;;17.20;1.93;;;;;;;;;;5063482;28;20025;-81
2021/01/09 11:46:33;;;;;;;26.57;2.40;;;;;;;;;;5064436;28;20082;-80
2021/01/09 11:48:59;;;;;;;16.63;1.03;;;;;;;;;;5081827;28;20036;-79
2021/01/09 11:51:25;;;;;;;14.57;1.43;;;;;;;;;;5080219;28;20024;-80
2021/01/09 11:53:52;;;;;;;13.63;1.47;;;;;;;;;;5065299;28;20035;-80
2021/01/09 11:56:22;;;;;;;9.77;1.03;;;;;;;;;;5083355;28;20458;-80
2021/01/09 11:58:48;;;;;;;8.67;1.00;;;;;;;;;;5082591;28;20024;-80
2021/01/09 12:01:14;;;;;;;3.20;0.67;;;;;;;;;;5083702;28;20049;-80
2021/01/09 12:03:40;;;;;;;8.90;0.90;;;;;;;;;;5086614;28;20021;-81
2021/01/09 12:06:06;;;;;;;5.80;0.80;;;;;;;;;;5085258;28;20067;-81
2021/01/09 12:08:32;;;;;;;8.80;1.33;;;;;;;;;;5083165;28;20539;-81
2021/01/09 12:10:58;;;;;;;7.13;1.30;;;;;;;;;;5065336;28;20115;-80
2021/01/09 12:13:24;;;;;;;7.37;0.80;;;;;;;;;;5064768;28;20044;-80
2021/01/09 12:15:51;;;;;;;12.37;2.47;;;;;;;;;;5064286;28;20478;-80
2021/01/09 12:18:19;;;;;;;14.17;1.13;;;;;;;;;;5061794;28;20039;-80
2021/01/09 12:20:47;;;;;;;11.57;0.73;;;;;;;;;;5080413;28;20020;-80
2021/01/09 12:23:13;;;;;;;15.27;1.00;;;;;;;;;;5078356;28;20063;-82
2021/01/09 12:25:39;;;;;;;11.53;1.00;;;;;;;;;;5079980;28;20045;-81
2021/01/09 12:28:05;;;;;;;15.33;2.40;;;;;;;;;;5062808;28;20029;-81
2021/01/09 12:30:31;;;;;;;11.70;1.60;;;;;;;;;;5079685;28;20020;-81
2021/01/09 12:32:57;;;;;;;7.00;0.87;;;;;;;;;;5063051;28;20036;-81
2021/01/09 12:35:24;;;;;;;12.17;1.20;;;;;;;;;;5062589;28;20037;-80
2021/01/09 12:37:53;;;;;;;10.90;0.90;;;;;;;;;;5080540;28;20056;-80
2021/01/09 12:40:19;;;;;;;5.40;1.00;;;;;;;;;;5064916;28;20054;-82
2021/01/09 12:42:45;;;;;;;9.67;1.10;;;;;;;;;;5082459;28;20100;-82
2021/01/09 12:45:11;;;;;;;6.23;1.07;;;;;;;;;;5066198;28;20036;-82
2021/01/09 12:47:37;;;;;;;4.73;0.60;;;;;;;;;;5067722;28;20032;-82
2021/01/09 12:50:03;;;;;;;8.00;0.90;;;;;;;;;;5066570;28;20039;-82
2021/01/09 12:52:29;;;;;;;8.73;1.30;;;;;;;;;;5084965;28;20040;-82
2021/01/09 12:54:55;;;;;;;6.07;1.97;;;;;;;;;;5065477;28;20025;-82
2021/01/09 12:57:21;;;;;;;12.67;1.30;;;;;;;;;;5067480;28;20035;-82
2021/01/09 12:59:47;;;;;;;10.67;1.43;;;;;;;;;;5087784;28;20029;-83
2021/01/09 13:02:13;;;;;;;5.37;0.47;;;;;;;;;;5088804;28;20020;-83
2021/01/09 13:04:39;;;;;;;12.77;1.70;;;;;;;;;;5074315;28;20032;-84
2021/01/09 13:07:05;;;;;;;9.87;1.00;;;;;;;;;;5087421;28;20045;-82
2021/01/09 13:09:31;;;;;;;5.17;0.80;;;;;;;;;;5091907;28;20028;-84
2021/01/09 13:12:01;;;;;;;10.27;2.67;;;;;;;;;;5094920;28;20096;-85
2021/01/09 13:17:39;;;;;;;15.47;2.43;;;;;;;;;;5094657;28;20031;-84
2021/01/09 13:20:09;;;;;;;15.32;3.70;;;;;;;;;;5075032;28;20032;-82
2021/01/09 13:22:35;;;;;;;15.77;3.30;;;;;;;;;;5089771;28;20033;-81
2021/01/09 13:25:02;;;;;;;7.60;1.63;;;;;;;;;;5089995;28;20063;-82
2021/01/09 13:27:28;;;;;;;10.50;2.03;;;;;;;;;;5091544;28;20024;-83
2021/01/09 13:29:54;;;;;;;11.53;2.33;;;;;;;;;;5091573;28;20025;-83
2021/01/09 13:32:23;;;;;;;6.00;0.80;;;;;;;;;;5086224;28;20039;-81
2021/01/09 13:34:49;;;;;;;8.67;0.87;;;;;;;;;;5082115;28;20060;-81
2021/01/09 13:37:15;;;;;;;15.93;1.60;;;;;;;;;;5065825;28;20036;-81
2021/01/09 13:39:42;;;;;;;4.17;0.60;;;;;;;;;;5082920;28;20461;-81
2021/01/09 13:42:08;;;;;;;7.13;1.73;;;;;;;;;;5083545;28;20035;-82
2021/01/09 13:44:34;;;;;;;6.17;1.03;;;;;;;;;;5083666;28;20043;-81
2021/01/09 13:47:00;;;;;;;12.23;1.60;;;;;;;;;;5087449;28;20029;-82
2021/01/09 13:49:26;;;;;;;14.80;1.37;;;;;;;;;;5089776;28;20050;-81
2021/01/09 13:51:52;;;;;;;6.17;0.70;;;;;;;;;;5093873;28;20032;-81
2021/01/09 13:54:19;;;;;;;14.93;1.97;;;;;;;;;;5093353;28;20020;-80
2021/01/09 13:56:45;;;;;;;4.60;0.90;;;;;;;;;;5090063;28;20029;-81
2021/01/09 13:59:15;;;;;;;7.97;0.80;;;;;;;;;;5094405;28;20024;-83
2021/01/09 14:01:41;;;;;;;2.77;0.50;;;;;;;;;;5093689;28;20052;-80
2021/01/09 14:04:07;;;;;;;8.37;1.07;;;;;;;;;;5092609;28;20082;-82
2021/01/09 14:06:33;;;;;;;4.47;0.70;;;;;;;;;;5078301;28;20041;-82
2021/01/09 14:08:59;;;;;;;8.23;0.87;;;;;;;;;;5096821;28;20025;-81
2021/01/09 14:11:26;;;;;;;7.10;0.70;;;;;;;;;;5098187;28;20029;-82
2021/01/09 14:13:53;;;;;;;8.33;1.07;;;;;;;;;;5098089;28;20047;-82
2021/01/09 14:16:20;;;;;;;7.87;0.87;;;;;;;;;;5098450;28;20021;-82
2021/01/09 14:18:46;;;;;;;9.03;1.63;;;;;;;;;;5098675;28;20024;-82
2021/01/09 14:21:12;;;;;;;8.13;1.20;;;;;;;;;;5099425;28;20035;-82
2021/01/09 14:23:38;;;;;;;6.53;1.00;;;;;;;;;;5098021;28;20052;-82
2021/01/09 14:26:04;;;;;;;7.20;1.00;;;;;;;;;;5099103;28;20093;-83
2021/01/09 14:28:31;;;;;;;6.30;0.47;;;;;;;;;;5093463;28;20048;-81
2021/01/09 14:30:57;;;;;;;8.10;1.00;;;;;;;;;;5066841;28;20041;-82
2021/01/09 14:33:23;;;;;;;5.37;1.23;;;;;;;;;;5083884;28;20028;-81
2021/01/09 14:35:49;;;;;;;7.23;1.40;;;;;;;;;;5084521;28;20032;-81
2021/01/09 14:38:16;;;;;;;9.47;1.37;;;;;;;;;;5084716;28;20089;-81
2021/01/09 14:40:43;;;;;;;8.57;1.07;;;;;;;;;;5087928;28;20055;-81
2021/01/09 14:43:09;;;;;;;7.13;1.13;;;;;;;;;;5088840;28;20127;-81